Time;durP1;ratioP1;P1;durP2;ratioP2;P2;SDS_P1;SDS_P2;PMS_P1;PMS_P2;Temp;Humidity;BMP_temperature;BMP_pressure;BME280_temperature;BME280_humidity;BME280_pressure;Samples;Min_cycle;Max_cycle;Signal;HPM_P1;HPM_P2
2022/05/30 00:00:18;;;;;;;3.78;2.13;;;;;;;12.65;73.98;99775.28;5052150;28;20017;-83
2022/05/30 00:02:46;;;;;;;5.07;2.33;;;;;;;12.62;73.85;99766.97;5019759;28;20045;-82
2022/05/30 00:05:15;;;;;;;3.20;2.00;;;;;;;12.65;73.94;99768.78;5052497;28;20100;-83
2022/05/30 00:07:41;;;;;;;2.97;2.05;;;;;;;12.62;74.21;99764.91;5052576;28;20477;-83
2022/05/30 00:10:12;;;;;;;4.65;2.28;;;;;;;12.65;74.25;99772.44;5036075;28;20029;-83
2022/05/30 00:12:39;;;;;;;2.30;2.10;;;;;;;12.59;74.69;99757.31;5036164;28;20031;-83
2022/05/30 00:15:09;;;;;;;2.17;2.00;;;;;;;12.57;74.15;99754.19;5033449;28;20033;-82
2022/05/30 00:17:34;;;;;;;3.40;1.77;;;;;;;12.51;74.11;99747.66;5019290;28;20029;-83
2022/05/30 00:20:00;;;;;;;4.45;2.13;;;;;;;12.57;73.61;99742.00;5035128;28;20083;-82
2022/05/30 00:22:25;;;;;;;3.25;2.30;;;;;;;12.50;73.93;99748.94;5052140;28;20389;-83
2022/05/30 00:24:51;;;;;;;4.00;2.30;;;;;;;12.53;74.86;99745.84;5035545;28;20031;-83
2022/05/30 00:27:18;;;;;;;4.32;2.33;;;;;;;12.43;73.43;99726.56;5052105;28;20059;-83
2022/05/30 00:29:44;;;;;;;4.68;2.90;;;;;;;12.48;73.45;99743.72;5036368;28;20094;-83
2022/05/30 00:32:11;;;;;;;2.47;2.20;;;;;;;12.61;72.90;99756.81;5035607;28;20017;-85
2022/05/30 00:34:38;;;;;;;2.97;2.33;;;;;;;12.55;73.29;99760.41;5018965;28;20093;-83
2022/05/30 00:37:04;;;;;;;4.28;2.40;;;;;;;12.56;74.02;99766.91;5053657;28;20024;-83
2022/05/30 00:39:31;;;;;;;3.88;2.38;;;;;;;12.46;74.93;99759.81;5022716;28;20021;-84
2022/05/30 00:42:13;;;;;;;5.18;2.30;;;;;;;12.44;75.17;99760.31;5073198;28;20013;-85
2022/05/30 00:44:43;;;;;;;3.75;2.38;;;;;;;12.38;75.80;99748.03;5055555;28;20034;-85
2022/05/30 00:47:10;;;;;;;3.83;2.50;;;;;;;12.28;75.53;99734.47;5058219;28;20437;-83
2022/05/30 00:49:46;;;;;;;6.25;3.10;;;;;;;12.30;76.01;99744.09;5052060;28;20053;-84
2022/05/30 00:52:17;;;;;;;2.65;2.42;;;;;;;12.28;77.15;99757.31;5052322;28;20021;-82
2022/05/30 00:54:53;;;;;;;7.35;3.00;;;;;;;12.25;77.47;99753.38;5052129;28;20048;-83
2022/05/30 00:57:22;;;;;;;3.35;3.00;;;;;;;12.27;76.97;99750.81;5036208;28;20040;-84
2022/05/30 01:00:03;;;;;;;5.97;2.78;;;;;;;12.11;77.13;99729.38;5035786;28;20029;-84
2022/05/30 01:02:32;;;;;;;4.47;2.70;;;;;;;12.28;76.93;99746.66;5052154;28;20056;-84
2022/05/30 01:07:44;;;;;;;8.07;3.08;;;;;;;12.30;76.72;99743.28;5052241;28;20074;-83
2022/05/30 01:10:21;;;;;;;4.82;2.75;;;;;;;12.31;77.12;99739.16;5035199;28;20090;-83
2022/05/30 01:12:52;;;;;;;5.07;2.97;;;;;;;12.29;76.52;99730.28;5053964;28;20351;-83
2022/05/30 01:15:21;;;;;;;6.45;3.58;;;;;;;12.34;76.61;99749.56;5022997;28;20112;-84
2022/05/30 01:18:23;;;;;;;3.78;2.60;;;;;;;12.33;77.11;99743.09;5022245;28;20029;-84
2022/05/30 01:20:57;;;;;;;4.85;2.97;;;;;;;12.31;75.92;99742.78;5055227;28;20028;-84
2022/05/30 01:23:43;;;;;;;3.40;2.60;;;;;;;12.32;76.23;99741.50;5055316;28;20100;-83
2022/05/30 01:26:31;;;;;;;6.93;3.03;;;;;;;12.26;77.25;99742.75;5038386;28;20017;-83
2022/05/30 01:29:16;;;;;;;4.22;3.10;;;;;;;12.11;78.07;99729.38;5054817;28;20031;-82
2022/05/30 01:31:42;;;;;;;8.45;3.53;;;;;;;12.09;78.43;99743.34;5054851;28;20418;-83
2022/05/30 01:34:09;;;;;;;5.88;3.45;;;;;;;12.08;78.68;99738.94;5054747;28;20024;-83
2022/05/30 01:36:37;;;;;;;5.82;2.97;;;;;;;12.04;79.55;99741.22;5038201;28;20024;-84
2022/05/30 01:39:04;;;;;;;4.80;3.38;;;;;;;11.98;79.66;99736.75;5054810;28;20021;-84
2022/05/30 01:41:30;;;;;;;7.18;3.42;;;;;;;11.92;78.74;99738.75;5038232;28;20040;-84
2022/05/30 01:43:55;;;;;;;4.25;2.65;;;;;;;11.82;79.16;99743.06;5054891;28;20029;-84
2022/05/30 01:46:42;;;;;;;3.53;2.70;;;;;;;11.58;79.00;99695.56;5054421;28;20115;-83
2022/05/30 01:49:09;;;;;;;3.80;3.13;;;;;;;11.71;79.66;99735.13;5053687;28;20110;-83
2022/05/30 01:51:35;;;;;;;4.90;2.90;;;;;;;11.63;80.38;99731.16;5038537;28;20055;-83
2022/05/30 01:54:02;;;;;;;4.32;2.97;;;;;;;11.58;80.52;99731.88;5038330;28;20032;-84
2022/05/30 01:56:27;;;;;;;8.25;3.10;;;;;;;11.53;80.88;99719.09;5054275;28;20120;-85
2022/05/30 01:58:54;;;;;;;4.97;3.10;;;;;;;11.82;80.02;99743.06;5054417;28;20112;-84
2022/05/30 02:01:26;;;;;;;4.82;2.95;;;;;;;11.90;80.30;99733.56;5054373;28;20024;-84
2022/05/30 02:04:01;;;;;;;5.55;3.10;;;;;;;11.93;79.58;99729.72;5021485;28;20086;-84
2022/05/30 02:06:27;;;;;;;5.40;2.47;;;;;;;12.04;79.13;99735.50;5054159;28;20029;-83
2022/05/30 02:08:54;;;;;;;6.25;3.08;;;;;;;12.06;78.88;99732.16;5054084;28;20024;-84
2022/05/30 02:11:20;;;;;;;4.88;2.42;;;;;;;11.99;78.24;99735.44;5020989;28;20060;-84
2022/05/30 02:13:46;;;;;;;5.07;3.05;;;;;;;11.77;77.50;99710.31;5054989;28;20037;-83
2022/05/30 02:18:59;;;;;;;3.97;1.95;;;;;;;11.98;76.32;99733.91;5055344;28;20121;-84
2022/05/30 02:21:26;;;;;;;5.43;3.35;;;;;;;12.00;76.73;99729.25;5037746;28;20036;-85
2022/05/30 02:23:52;;;;;;;3.33;2.90;;;;;;;11.89;76.79;99714.84;5037143;28;20078;-82
2022/05/30 02:26:19;;;;;;;3.53;2.50;;;;;;;11.91;76.69;99709.44;5037501;28;20033;-83
2022/05/30 02:28:44;;;;;;;3.47;2.13;;;;;;;11.92;76.52;99722.44;5054068;28;20044;-82
2022/05/30 02:31:10;;;;;;;6.50;2.78;;;;;;;11.86;75.49;99704.44;5055737;28;20044;-83
2022/05/30 02:39:07;;;;;;;6.43;2.85;;;;;;;11.95;76.89;99726.31;5054244;28;20163;-84
2022/05/30 02:41:33;;;;;;;4.80;2.90;;;;;;;11.96;78.09;99737.25;5020879;28;20087;-83
2022/05/30 02:43:59;;;;;;;3.83;3.15;;;;;;;11.76;77.93;99705.91;5054968;28;20100;-84
2022/05/30 02:46:24;;;;;;;5.35;3.05;;;;;;;11.87;78.46;99728.06;5053643;28;20112;-85
2022/05/30 02:48:51;;;;;;;5.95;3.38;;;;;;;11.93;77.99;99734.63;5036561;28;20481;-86
2022/05/30 02:51:17;;;;;;;3.22;2.80;;;;;;;11.93;78.36;99741.13;5036441;28;20037;-84
2022/05/30 02:53:43;;;;;;;7.57;3.70;;;;;;;11.82;78.40;99720.22;5036393;28;20463;-85
2022/05/30 02:56:11;;;;;;;6.97;3.25;;;;;;;11.90;78.76;99725.00;5054899;28;20503;-85
2022/05/30 02:58:36;;;;;;;6.75;3.33;;;;;;;11.69;79.23;99703.47;5037049;28;20033;-85
2022/05/30 03:01:11;;;;;;;6.30;3.28;;;;;;;11.95;79.20;99747.09;5037133;28;20021;-84
2022/05/30 03:03:38;;;;;;;5.95;3.28;;;;;;;11.96;79.03;99742.97;5036430;28;20370;-85
2022/05/30 03:06:05;;;;;;;3.17;2.80;;;;;;;11.85;78.76;99728.56;5053297;28;20032;-84
2022/05/30 03:08:32;;;;;;;4.60;3.30;;;;;;;11.91;78.08;99726.56;5036631;28;20424;-84
2022/05/30 03:10:58;;;;;;;5.88;3.10;;;;;;;11.92;78.61;99733.06;5053109;28;20025;-83
2022/05/30 03:13:24;;;;;;;5.65;3.45;;;;;;;12.07;77.41;99739.44;5036341;28;20036;-85
2022/05/30 03:15:51;;;;;;;3.70;2.65;;;;;;;12.03;76.46;99725.41;5036331;28;20024;-84
2022/05/30 03:18:17;;;;;;;4.57;2.60;;;;;;;12.07;76.30;99737.38;5054279;28;20025;-84
2022/05/30 03:20:44;;;;;;;6.15;2.85;;;;;;;11.89;75.97;99712.00;5053414;28;20040;-85
2022/05/30 03:23:09;;;;;;;4.60;2.53;;;;;;;11.71;76.42;99678.06;5052928;28;20386;-84
2022/05/30 03:25:35;;;;;;;4.72;3.00;;;;;;;12.20;75.91;99756.16;5036354;28;20433;-83
2022/05/30 03:28:02;;;;;;;5.60;2.88;;;;;;;12.18;76.09;99736.72;5036220;28;20526;-84
2022/05/30 03:30:29;;;;;;;4.68;2.75;;;;;;;12.15;77.09;99751.19;5052913;28;20496;-85
2022/05/30 03:32:55;;;;;;;6.05;2.58;;;;;;;12.05;78.06;99739.94;5036188;28;20106;-85
2022/05/30 03:35:21;;;;;;;4.78;3.08;;;;;;;12.06;78.14;99735.81;5052667;28;20036;-85
2022/05/30 03:37:48;;;;;;;4.35;2.80;;;;;;;12.13;78.30;99737.44;5053027;28;20120;-84
2022/05/30 03:40:15;;;;;;;3.88;2.60;;;;;;;12.23;78.49;99753.13;5036387;28;20374;-83
2022/05/30 03:42:41;;;;;;;3.85;2.80;;;;;;;12.24;78.50;99760.38;5041168;28;20102;-84
2022/05/30 03:45:08;;;;;;;5.32;2.97;;;;;;;12.09;79.59;99737.63;5020480;28;20033;-84
2022/05/30 03:47:38;;;;;;;5.50;2.83;;;;;;;12.03;79.68;99739.69;5036791;28;20460;-86
2022/05/30 03:50:06;;;;;;;4.65;3.28;;;;;;;12.17;79.82;99752.28;5054870;28;20079;-84
2022/05/30 03:52:33;;;;;;;9.40;3.42;;;;;;;12.18;80.54;99755.91;5022745;28;20033;-84
2022/05/30 03:54:58;;;;;;;6.35;3.15;;;;;;;12.26;80.46;99760.66;5060722;28;20350;-84
2022/05/30 03:57:25;;;;;;;3.60;3.22;;;;;;;12.25;80.29;99761.94;5051503;28;20048;-84
2022/05/30 03:59:51;;;;;;;2.97;2.58;;;;;;;12.25;80.49;99747.66;5035677;28;20025;-84
2022/05/30 04:02:18;;;;;;;4.40;3.22;;;;;;;12.36;80.38;99764.13;5052335;28;20044;-84
2022/05/30 04:04:45;;;;;;;4.05;2.65;;;;;;;12.18;80.37;99735.94;5052736;28;20186;-84
2022/05/30 04:07:11;;;;;;;4.45;3.03;;;;;;;12.32;79.80;99737.88;5052048;28;20441;-85
2022/05/30 04:09:37;;;;;;;2.83;2.63;;;;;;;12.51;79.90;99767.66;5054358;28;20045;-85
2022/05/30 04:12:03;;;;;;;5.38;2.47;;;;;;;12.43;79.48;99752.25;5053334;28;20078;-84
2022/05/30 04:14:31;;;;;;;6.78;3.13;;;;;;;12.39;79.85;99743.91;5052848;28;20027;-85
2022/05/30 04:16:57;;;;;;;4.93;3.10;;;;;;;12.52;80.33;99757.78;5036123;28;20061;-85
2022/05/30 04:19:23;;;;;;;6.18;3.10;;;;;;;12.58;79.22;99743.56;5035839;28;20112;-85
2022/05/30 04:21:50;;;;;;;3.65;2.78;;;;;;;12.56;79.30;99724.06;5052942;28;20141;-86
2022/05/30 04:24:16;;;;;;;4.78;2.72;;;;;;;12.65;79.22;99729.59;5035633;28;20477;-84
2022/05/30 04:26:44;;;;;;;4.18;2.55;;;;;;;12.61;78.86;99726.19;5053496;28;20021;-85
2022/05/30 04:29:11;;;;;;;4.68;2.50;;;;;;;12.59;78.91;99725.88;5052111;28;20025;-85
2022/05/30 04:31:37;;;;;;;4.25;2.97;;;;;;;12.53;78.44;99705.09;5053499;28;20086;-85
2022/05/30 04:34:03;;;;;;;5.80;3.83;;;;;;;13.06;78.71;99770.16;5051696;28;20040;-85
2022/05/30 04:36:28;;;;;;;5.88;2.70;;;;;;;12.91;77.81;99735.22;5054619;28;20102;-85
2022/05/30 04:38:54;;;;;;;7.10;3.10;;;;;;;13.10;77.71;99759.28;5054202;28;20021;-85
2022/05/30 04:41:20;;;;;;;2.42;2.08;;;;;;;13.01;77.82;99758.69;5054499;28;20032;-82
2022/05/30 04:43:46;;;;;;;5.38;3.65;;;;;;;13.07;77.81;99753.78;5038061;28;20021;-81
2022/05/30 04:46:19;;;;;;;2.60;2.38;;;;;;;13.07;77.90;99766.03;5052897;28;20105;-81
2022/05/30 04:48:45;;;;;;;3.35;2.85;;;;;;;12.99;79.02;99768.56;5056759;28;20068;-83
2022/05/30 04:51:11;;;;;;;4.05;2.20;;;;;;;12.70;78.83;99730.91;5038533;28;20052;-81
2022/05/30 04:53:40;;;;;;;4.60;2.40;;;;;;;12.96;78.95;99780.22;5038972;28;20337;-80
2022/05/30 04:56:07;;;;;;;4.72;2.28;;;;;;;12.82;78.83;99767.66;5038856;28;20036;-81
2022/05/30 04:58:35;;;;;;;2.70;2.50;;;;;;;12.79;79.56;99771.50;5038955;28;20048;-87
2022/05/30 05:01:04;;;;;;;2.47;2.28;;;;;;;12.84;80.19;99775.69;5039293;28;20455;-86
2022/05/30 05:03:32;;;;;;;4.32;2.55;;;;;;;12.91;79.52;99772.41;5045287;28;20333;-84
2022/05/30 05:06:07;;;;;;;2.92;2.53;;;;;;;12.95;78.75;99764.38;5039858;28;20033;-83
2022/05/30 05:08:56;;;;;;;3.50;2.92;;;;;;;13.02;78.79;99778.19;5022447;28;20036;-83
2022/05/30 05:11:25;;;;;;;5.13;2.83;;;;;;;12.94;79.36;99786.44;5040989;28;20032;-87
2022/05/30 05:13:52;;;;;;;4.45;2.78;;;;;;;12.94;79.97;99772.16;5057742;28;20079;-87
2022/05/30 05:16:21;;;;;;;6.53;2.60;;;;;;;12.96;79.46;99765.94;5033163;28;20029;-87
2022/05/30 05:18:47;;;;;;;6.80;2.88;;;;;;;13.16;79.05;99790.78;5019424;28;20504;-84
2022/05/30 05:21:25;;;;;;;4.20;3.03;;;;;;;13.16;79.15;99785.88;5055403;28;20033;-83
2022/05/30 05:23:51;;;;;;;6.18;3.17;;;;;;;13.18;78.72;99793.91;5056882;28;20029;-81
2022/05/30 05:26:19;;;;;;;2.95;2.53;;;;;;;13.17;79.26;99786.66;5047469;28;20484;-82
2022/05/30 05:28:45;;;;;;;5.15;2.95;;;;;;;13.24;79.20;99786.94;5021613;28;20454;-82
2022/05/30 05:31:26;;;;;;;6.75;2.88;;;;;;;13.13;78.93;99789.72;5021688;28;20120;-82
2022/05/30 05:33:54;;;;;;;6.53;2.55;;;;;;;13.25;78.98;99784.88;5038506;28;20033;-82
2022/05/30 05:36:39;;;;;;;3.70;2.80;;;;;;;13.36;78.98;99784.94;5042156;28;20032;-83
2022/05/30 05:39:05;;;;;;;4.22;2.80;;;;;;;13.47;78.15;99793.56;5070831;28;20025;-82
2022/05/30 05:41:32;;;;;;;5.03;3.20;;;;;;;13.60;77.65;99785.34;5055723;28;20092;-82
2022/05/30 05:43:58;;;;;;;10.90;3.45;;;;;;;13.78;76.70;99789.81;5052618;28;20025;-82
2022/05/30 05:46:30;;;;;;;5.97;3.00;;;;;;;13.95;76.60;99792.75;5040154;28;20029;-84
2022/05/30 05:48:57;;;;;;;;;;;;;;;13.97;75.80;99793.00;5036729;28;20099;-83
2022/05/30 05:51:24;;;;;;;6.68;3.38;;;;;;;14.14;75.61;99799.59;5036753;28;19932;-84
2022/05/30 05:53:50;;;;;;;6.00;3.90;;;;;;;14.16;74.46;99802.72;5020309;28;20450;-83
2022/05/30 05:56:27;;;;;;;5.80;4.47;;;;;;;14.19;74.62;99801.69;5022040;28;20033;-83
2022/05/30 05:58:54;;;;;;;5.82;3.58;;;;;;;14.23;75.30;99803.00;5036993;28;20045;-83
2022/05/30 06:01:26;;;;;;;4.15;3.75;;;;;;;14.34;74.97;99801.47;5037713;28;20033;-84
2022/05/30 06:03:56;;;;;;;;;;;;;;;14.40;74.70;99811.69;5036836;28;20126;-83
2022/05/30 06:06:22;;;;;;;7.57;4.03;;;;;;;14.47;74.63;99805.44;5034974;28;19909;-83
2022/05/30 06:08:50;;;;;;;6.15;3.63;;;;;;;14.50;73.60;99807.28;5034860;28;20041;-82
2022/05/30 06:11:16;;;;;;;4.57;3.80;;;;;;;14.35;74.50;99803.03;5001252;28;20049;-84
2022/05/30 06:13:44;;;;;;;4.93;3.47;;;;;;;14.44;75.13;99806.47;5036222;28;20029;-85
2022/05/30 06:16:14;;;;;;;8.00;5.25;;;;;;;14.65;74.61;99799.19;5018209;28;20088;-83
2022/05/30 06:18:42;;;;;;;3.63;2.90;;;;;;;14.78;73.75;99803.63;5034139;28;20470;-83
2022/05/30 06:21:09;;;;;;;4.85;1.80;;;;;;;14.54;68.68;99776.28;5019477;28;20038;-84
2022/05/30 06:23:34;;;;;;;3.80;2.03;;;;;;;14.74;68.07;99809.63;5034978;28;20029;-83
2022/05/30 06:26:07;;;;;;;2.75;1.90;;;;;;;14.70;68.56;99812.75;5019293;28;20465;-84
2022/05/30 06:28:35;;;;;;;3.08;1.42;;;;;;;14.65;69.14;99807.78;5042179;28;20005;-84
2022/05/30 06:31:10;;;;;;;2.83;1.67;;;;;;;14.59;69.49;99821.34;5032575;28;20536;-88
2022/05/30 06:33:37;;;;;;;2.58;1.55;;;;;;;14.56;69.21;99818.72;5032544;28;20053;-82
2022/05/30 06:36:07;;;;;;;3.40;1.80;;;;;;;14.63;69.13;99823.97;5044477;28;20531;-83
2022/05/30 06:38:32;;;;;;;5.85;1.73;;;;;;;14.59;68.33;99817.69;5022095;28;20032;-80
2022/05/30 06:41:19;;;;;;;2.97;1.73;;;;;;;14.78;69.43;99830.22;5015248;28;20109;-82
2022/05/30 06:43:48;;;;;;;3.28;2.00;;;;;;;14.90;72.70;99825.28;5014965;28;20378;-82
2022/05/30 06:46:15;;;;;;;5.22;2.53;;;;;;;14.96;71.21;99838.31;5014341;28;20036;-83
2022/05/30 06:48:41;;;;;;;2.95;2.40;;;;;;;14.90;72.83;99837.53;5014118;28;20049;-83
2022/05/30 06:51:11;;;;;;;3.55;2.10;;;;;;;15.00;72.51;99841.69;5030293;28;20092;-81
2022/05/30 06:53:45;;;;;;;3.40;1.98;;;;;;;15.17;78.37;99841.69;5013486;28;20146;-84
2022/05/30 06:56:12;;;;;;;2.67;1.80;;;;;;;15.06;80.59;99836.75;5017838;28;20037;-84
2022/05/30 06:58:39;;;;;;;2.63;2.42;;;;;;;15.22;74.99;99840.91;5016117;28;20376;-83
2022/05/30 07:01:05;;;;;;;3.13;1.90;;;;;;;15.37;72.84;99835.69;5013826;28;20037;-82
2022/05/30 07:03:32;;;;;;;2.38;1.90;;;;;;;15.59;72.72;99837.00;5015546;28;20041;-86
2022/05/30 07:05:58;;;;;;;7.10;2.28;;;;;;;15.84;73.41;99838.72;5015088;28;20018;-83
2022/05/30 07:08:24;;;;;;;5.60;2.67;;;;;;;15.82;71.55;99839.28;5016895;28;20022;-85
2022/05/30 07:10:51;;;;;;;5.78;2.00;;;;;;;15.94;71.78;99837.91;5014463;28;20382;-84
2022/05/30 07:13:18;;;;;;;3.22;2.33;;;;;;;16.11;71.85;99846.47;5014774;28;20038;-82
2022/05/30 07:15:48;;;;;;;6.75;2.60;;;;;;;16.22;71.33;99842.78;5014919;28;20119;-84
2022/05/30 07:18:15;;;;;;;6.13;2.42;;;;;;;16.23;72.32;99844.34;5013794;28;20030;-84
2022/05/30 07:20:42;;;;;;;5.05;2.05;;;;;;;16.30;71.61;99846.63;4998738;28;20520;-85
2022/05/30 07:23:08;;;;;;;2.22;2.03;;;;;;;16.32;71.33;99846.91;5015387;28;20148;-85
2022/05/30 07:25:35;;;;;;;4.05;2.00;;;;;;;16.32;70.62;99849.78;5015656;28;20022;-85
2022/05/30 07:28:02;;;;;;;3.60;2.40;;;;;;;16.20;71.21;99845.38;5011177;28;20116;-85
2022/05/30 07:30:27;;;;;;;4.53;2.70;;;;;;;16.37;71.68;99844.00;5011325;28;20115;-84
2022/05/30 07:32:54;;;;;;;1.95;1.50;;;;;;;16.34;69.46;99853.66;5012598;28;20065;-86
2022/05/30 07:35:20;;;;;;;2.10;1.63;;;;;;;16.62;71.06;99847.81;5013489;28;20518;-84
2022/05/30 07:37:45;;;;;;;2.22;1.60;;;;;;;16.86;68.92;99849.22;5027989;28;20108;-84
2022/05/30 07:40:12;;;;;;;3.10;1.88;;;;;;;16.98;67.43;99839.16;5014439;28;20030;-84
2022/05/30 07:42:37;;;;;;;2.83;1.90;;;;;;;17.14;68.06;99847.69;5015906;28;20097;-84
2022/05/30 07:45:03;;;;;;;4.25;1.92;;;;;;;17.29;65.73;99850.16;5014830;28;20053;-84
2022/05/30 07:47:28;;;;;;;4.18;2.28;;;;;;;17.36;67.46;99840.94;5030416;28;20018;-84
2022/05/30 07:49:54;;;;;;;2.33;1.77;;;;;;;17.43;68.69;99851.06;5035763;28;20355;-83
2022/05/30 07:52:19;;;;;;;2.88;2.28;;;;;;;17.36;66.37;99846.72;5034243;28;20029;-85
2022/05/30 07:54:45;;;;;;;1.90;1.80;;;;;;;17.29;66.04;99835.78;5037268;28;20029;-85
2022/05/30 07:57:10;;;;;;;4.75;2.03;;;;;;;17.46;64.93;99847.91;5016188;28;20406;-84
2022/05/30 07:59:36;;;;;;;3.20;1.85;;;;;;;17.56;63.27;99854.09;4999617;28;20024;-85
2022/05/30 08:02:04;;;;;;;4.75;2.00;;;;;;;17.64;65.81;99860.84;5015982;28;20034;-83
2022/05/30 08:04:29;;;;;;;2.42;1.80;;;;;;;17.77;65.42;99842.91;5015506;28;20470;-82
2022/05/30 08:06:54;;;;;;;2.72;2.15;;;;;;;17.72;64.56;99855.25;5033162;28;20032;-83
2022/05/30 08:09:20;;;;;;;5.35;2.05;;;;;;;17.78;65.46;99862.53;5015157;28;20134;-83
2022/05/30 08:11:45;;;;;;;3.30;1.98;;;;;;;17.88;63.93;99852.22;5033241;28;20148;-82
2022/05/30 08:14:11;;;;;;;1.90;1.60;;;;;;;18.07;60.66;99860.88;5015308;28;20029;-82
2022/05/30 08:16:37;;;;;;;3.08;1.63;;;;;;;18.37;62.26;99863.66;5034484;28;20021;-83
2022/05/30 08:19:06;;;;;;;2.95;1.50;;;;;;;18.65;58.80;99858.31;5033376;28;20465;-83
2022/05/30 08:21:32;;;;;;;1.52;1.42;;;;;;;18.99;59.78;99858.63;5035114;28;20044;-83
2022/05/30 08:23:57;;;;;;;3.42;1.75;;;;;;;19.04;57.58;99833.88;5042164;28;20017;-83
2022/05/30 08:26:22;;;;;;;2.97;1.88;;;;;;;18.89;58.17;99854.56;5041936;28;20025;-83
2022/05/30 08:28:48;;;;;;;1.80;1.70;;;;;;;18.84;57.76;99861.22;5040578;28;20090;-83
2022/05/30 08:31:14;;;;;;;2.42;2.13;;;;;;;18.37;59.28;99834.81;5040652;28;20108;-83
2022/05/30 08:33:41;;;;;;;1.80;1.58;;;;;;;18.30;57.46;99867.19;5059100;28;20025;-83
2022/05/30 08:36:09;;;;;;;4.00;2.55;;;;;;;18.46;58.22;99869.81;5039641;28;20086;-84
2022/05/30 08:38:37;;;;;;;2.35;1.50;;;;;;;18.75;57.38;99871.03;5039620;28;20124;-83
2022/05/30 08:43:55;;;;;;;1.98;1.40;;;;;;;18.97;56.00;99878.56;5043439;28;20112;-83
2022/05/30 08:46:37;;;;;;;2.78;1.70;;;;;;;19.13;57.06;99877.53;5058831;28;20025;-83
2022/05/30 08:49:06;;;;;;;;;;;;;;;19.12;58.43;99880.97;5022766;28;20358;-83
2022/05/30 08:52:07;;;;;;;3.38;1.80;;;;;;;19.17;57.82;99877.22;5038232;28;19940;-81
2022/05/30 08:54:53;;;;;;;2.25;2.03;;;;;;;19.09;58.13;99879.19;4975393;28;20530;-83
2022/05/30 08:57:34;;;;;;;2.53;1.70;;;;;;;18.91;58.07;99881.53;5051105;28;20045;-83
2022/05/30 09:00:21;;;;;;;1.50;1.40;;;;;;;18.51;58.25;99879.72;5038240;28;20039;-83
2022/05/30 09:03:12;;;;;;;1.60;1.50;;;;;;;18.49;60.15;99879.50;5056306;28;20039;-83
2022/05/30 09:06:08;;;;;;;2.57;1.43;;;;;;;18.10;58.99;99880.00;5055922;28;20036;-83
2022/05/30 09:08:36;;;;;;;2.60;1.45;;;;;;;18.21;57.27;99882.72;5021653;28;20290;-83
2022/05/30 09:11:29;;;;;;;1.50;1.40;;;;;;;18.56;56.77;99881.78;5056697;28;20028;-83
2022/05/30 09:13:57;;;;;;;3.10;1.50;;;;;;;18.99;57.86;99888.22;5038275;28;20040;-82
2022/05/30 09:16:34;;;;;;;1.75;1.33;;;;;;;19.22;52.89;99887.91;5038815;28;20029;-84
2022/05/30 09:19:01;;;;;;;4.10;1.70;;;;;;;19.26;54.10;99888.34;5037811;28;20072;-83
2022/05/30 09:21:29;;;;;;;1.10;1.00;;;;;;;19.36;52.74;99881.63;5036966;28;20508;-82
2022/05/30 09:23:54;;;;;;;1.52;1.45;;;;;;;19.40;52.36;99879.19;5054822;28;20037;-82
2022/05/30 09:26:23;;;;;;;2.30;1.55;;;;;;;19.55;52.97;99893.13;5022613;28;20027;-82
2022/05/30 09:28:51;;;;;;;1.35;1.13;;;;;;;19.43;50.71;99894.66;5039288;28;20048;-82
2022/05/30 09:31:53;;;;;;;1.50;1.40;;;;;;;19.36;51.20;99886.59;5022148;28;20029;-82
2022/05/30 09:34:31;;;;;;;2.15;1.58;;;;;;;19.44;52.29;99887.53;5056122;28;20040;-82
2022/05/30 09:36:57;;;;;;;1.70;1.60;;;;;;;19.66;52.82;99900.84;5056329;28;20051;-83
2022/05/30 09:39:23;;;;;;;2.35;1.60;;;;;;;19.79;51.61;99892.97;5037995;28;20025;-83
2022/05/30 09:41:57;;;;;;;2.03;1.80;;;;;;;19.84;51.29;99894.97;5056261;28;20040;-83
2022/05/30 09:44:42;;;;;;;2.90;1.50;;;;;;;20.21;51.18;99884.53;5038500;28;20029;-82
2022/05/30 09:47:16;;;;;;;1.30;1.20;;;;;;;20.32;47.54;99890.13;5056165;28;20036;-83
2022/05/30 09:49:59;;;;;;;2.33;1.02;;;;;;;20.21;48.57;99890.31;5046285;28;20033;-82
2022/05/30 09:52:37;;;;;;;2.15;1.50;;;;;;;20.32;45.85;99895.91;5021794;28;20492;-82
2022/05/30 09:55:44;;;;;;;2.58;1.50;;;;;;;20.29;46.92;99891.19;5037859;28;20477;-76
2022/05/30 09:58:10;;;;;;;1.70;1.30;;;;;;;20.07;47.35;99895.34;5046281;28;20044;-79
2022/05/30 10:00:48;;;;;;;1.52;1.40;;;;;;;19.78;48.63;99833.59;5037401;28;20466;-79
2022/05/30 10:03:32;;;;;;;1.33;1.15;;;;;;;20.04;47.25;99898.53;5021675;28;20418;-79
2022/05/30 10:06:15;;;;;;;3.10;1.25;;;;;;;19.63;47.31;99901.94;5037431;28;20024;-77
2022/05/30 10:08:41;;;;;;;1.42;0.82;;;;;;;19.39;45.37;99900.72;5055444;28;20029;-79
2022/05/30 10:11:07;;;;;;;1.38;1.27;;;;;;;19.63;47.19;99894.06;5037145;28;20025;-78
2022/05/30 10:13:36;;;;;;;2.53;1.25;;;;;;;19.87;48.29;99898.88;5036493;28;20504;-78
2022/05/30 10:16:09;;;;;;;2.50;0.90;;;;;;;19.91;47.22;99892.75;5052760;28;20118;-77
2022/05/30 10:18:55;;;;;;;1.05;0.95;;;;;;;19.97;46.91;99899.22;5037542;28;20024;-76
2022/05/30 10:21:37;;;;;;;1.08;0.90;;;;;;;19.98;46.91;99895.00;5053421;28;20020;-77
2022/05/30 10:30:48;;;;;;;1.20;0.80;;;;;;;19.89;46.43;99898.31;5054688;28;20051;-78
2022/05/30 10:33:42;;;;;;;1.23;0.88;;;;;;;19.80;44.13;99882.97;4935439;29;20036;-78
2022/05/30 10:36:28;;;;;;;1.00;0.65;;;;;;;19.70;44.22;99887.59;5036425;28;20033;-80
2022/05/30 10:39:25;;;;;;;3.45;1.13;;;;;;;19.60;48.86;99900.94;5055268;28;20020;-80
2022/05/30 10:42:12;;;;;;;3.70;1.15;;;;;;;19.60;49.22;99889.38;5054397;28;20389;-77
2022/05/30 10:44:54;;;;;;;1.48;0.80;;;;;;;19.43;46.02;99885.97;5037417;28;20095;-79
2022/05/30 10:47:39;;;;;;;0.52;0.50;;;;;;;19.49;44.47;99877.25;5036786;28;20025;-77
2022/05/30 10:50:51;;;;;;;1.05;0.70;;;;;;;19.60;47.56;99879.91;5054226;28;20048;-80
2022/05/30 10:53:45;;;;;;;1.20;0.93;;;;;;;19.66;44.78;99880.59;5038252;28;20032;-77
2022/05/30 10:56:23;;;;;;;1.40;1.10;;;;;;;19.75;46.25;99878.06;5005240;28;20037;-78
2022/05/30 10:59:03;;;;;;;1.85;1.05;;;;;;;19.73;48.06;99871.28;5037025;28;20044;-78
2022/05/30 11:01:43;;;;;;;1.40;1.08;;;;;;;19.63;45.36;99876.72;5020226;28;20024;-77
2022/05/30 11:04:19;;;;;;;1.23;0.90;;;;;;;19.64;46.25;99878.25;5036392;28;20033;-75
2022/05/30 11:06:48;;;;;;;1.80;1.00;;;;;;;19.78;48.65;99879.06;5036310;28;20036;-76
2022/05/30 11:09:18;;;;;;;1.75;1.35;;;;;;;19.86;46.81;99884.97;5019595;28;20029;-76
2022/05/30 11:12:06;;;;;;;0.82;0.70;;;;;;;20.05;47.11;99885.63;5054547;28;20025;-76
2022/05/30 11:14:41;;;;;;;0.90;0.80;;;;;;;20.24;47.91;99878.41;5054387;28;20025;-80
2022/05/30 11:17:40;;;;;;;2.17;0.80;;;;;;;20.30;46.87;99880.41;5022066;28;20017;-80
2022/05/30 11:20:23;;;;;;;0.63;0.63;;;;;;;20.25;45.09;99885.75;4976720;28;20364;-81
2022/05/30 11:22:52;;;;;;;0.60;0.50;;;;;;;20.18;44.19;99874.06;5041472;28;20492;-81
2022/05/30 11:25:59;;;;;;;0.47;0.47;;;;;;;19.57;43.81;99884.69;5034117;28;20026;-81
2022/05/30 11:28:50;;;;;;;1.35;0.55;;;;;;;19.99;42.83;99882.06;5060954;28;20032;-77
2022/05/30 11:31:36;;;;;;;0.43;0.43;;;;;;;19.67;38.74;99893.72;5035858;28;20032;-77
2022/05/30 11:34:08;;;;;;;0.52;0.52;;;;;;;19.42;40.44;99887.31;5035744;28;20166;-76
2022/05/30 11:36:52;;;;;;;0.90;0.60;;;;;;;19.45;40.62;99891.22;5053652;28;20032;-81
2022/05/30 11:39:46;;;;;;;1.05;0.95;;;;;;;18.89;39.57;99895.75;5036835;28;20351;-82
2022/05/30 11:42:27;;;;;;;1.08;0.57;;;;;;;18.69;42.81;99889.75;5054034;28;20082;-81
2022/05/30 11:45:14;;;;;;;5.30;0.68;;;;;;;18.64;43.07;99887.72;5054185;28;20111;-80
2022/05/30 11:48:07;;;;;;;0.63;0.60;;;;;;;18.57;44.48;99877.59;5023289;28;20047;-84
2022/05/30 11:50:36;;;;;;;0.63;0.60;;;;;;;18.65;43.66;99872.75;5024295;28;20041;-82
2022/05/30 11:53:27;;;;;;;1.08;0.70;;;;;;;18.84;42.37;99885.06;5031306;28;20523;-84
2022/05/30 11:56:18;;;;;;;0.63;0.60;;;;;;;18.90;43.97;99885.75;5065808;28;20088;-86
2022/05/30 11:59:07;;;;;;;0.40;0.40;;;;;;;18.95;45.35;99889.88;5064097;28;20032;-86
2022/05/30 12:01:49;;;;;;;1.05;0.70;;;;;;;18.95;44.55;99882.00;5066711;28;20110;-80
2022/05/30 12:05:02;;;;;;;1.27;0.60;;;;;;;18.96;44.18;99888.56;5047491;28;20035;-77
2022/05/30 12:08:06;;;;;;;1.13;0.95;;;;;;;18.72;45.93;99880.78;5052842;28;20170;-75
2022/05/30 12:10:48;;;;;;;0.60;0.52;;;;;;;18.79;47.59;99888.03;5051742;28;20135;-77
2022/05/30 12:13:27;;;;;;;3.35;0.75;;;;;;;18.71;45.40;99876.34;5054348;28;20021;-85
2022/05/30 12:16:27;;;;;;;0.68;0.65;;;;;;;18.72;47.70;99871.34;5059684;28;20024;-86